Flight Track Log - Related Links

Times and Time Zones

All times are in EST time to prevent confusion due to time zone crossing. See the ASQ5416 flight status page for this flight to view local times or setup timezone preferences in your user account.

Time Position Orientation Groundspeed Altitude Reporting Facility
EST Latitude Longitude Course Direction KTS MPH feet Rate Location/Type
Fri 06:54:40 PM 40.0008 -82.8797 85° East 131 151 1,400  Level Indianapolis Center
Fri 06:55:36 PM 40.0042 -82.8264 85° East 164 189 3,300 1,831 Climbing Indianapolis Center
Fri 06:56:38 PM 40.0092 -82.7433 85° East 209 241 5,000 2,032 Climbing Indianapolis Center
Fri 06:57:40 PM 40.0106 -82.6411 89° East 269 310 7,500 2,661 Climbing Indianapolis Center
Fri 06:58:42 PM 40.0094 -82.5283 91° East 302 348 10,500 2,565 Climbing Indianapolis Center
Fri 06:59:44 PM 40.0233 -82.3858 83° East 336 387 12,800 1,839 Climbing Indianapolis Center
Fri 07:00:46 PM 40.0411 -82.2506 80° East 369 425 14,300 1,645 Climbing Indianapolis Center
Fri 07:01:48 PM 40.0597 -82.1025 81° East 403 464 16,200 1,790 Climbing Indianapolis Center
Fri 07:02:50 PM 40.0806 -81.9556 79° East 410 472 18,000 1,790 Climbing Indianapolis Center
Fri 07:03:52 PM 40.1008 -81.8044 80° East 416 479 19,900 1,645 Climbing Indianapolis Center
Fri 07:04:54 PM 40.1214 -81.6506 80° East 427 491 21,400 1,610 Climbing Indianapolis Center
Fri 07:05:55 PM 40.1461 -81.4642 80° East 438 504 23,200 1,610 Climbing Indianapolis Center
Fri 07:06:57 PM 40.1672 -81.2997 80° East 448 516 24,700 1,306 Climbing Indianapolis Center
Fri 07:07:59 PM 40.1878 -81.1333 81° East 455 524 25,900 1,161 Climbing Indianapolis Center
Fri 07:09:01 PM 40.2106 -80.9631 80° East 465 535 27,100 1,122 Climbing Indianapolis Center
Fri 07:10:02 PM 40.2319 -80.7911 81° East 472 543 28,200 1,024 Climbing Indianapolis Center
Fri 07:11:04 PM 40.2536 -80.6169 81° East 476 548 29,200 992 Climbing Indianapolis Center
Fri 07:12:09 PM 40.3119 -80.4439 66° East 490 564 30,300 992 Climbing Cleveland Center
Fri 07:13:11 PM 40.3783 -80.2803 62° Northeast 487 560 31,300 968 Climbing Cleveland Center
Fri 07:14:13 PM 40.4400 -80.1239 63° Northeast 487 560 32,300 829 Climbing Cleveland Center
Fri 07:15:14 PM 40.5064 -79.9583 62° Northeast 487 560 33,000 341 Climbing Cleveland Center
Fri 07:16:16 PM 40.5706 -79.7981 62° Northeast 492 566 33,000  Level Cleveland Center
Fri 07:17:18 PM 40.6353 -79.6369 62° Northeast 495 570 33,000  Level Cleveland Center
Fri 07:18:20 PM 40.7089 -79.4400 64° Northeast 499 574 33,000  Level Cleveland Center
Fri 07:19:22 PM 40.7319 -79.2539 81° East 510 587 33,000  Level Cleveland Center
Fri 07:20:23 PM 40.7547 -79.0672 81° East 514 592 33,000  Level Cleveland Center
Fri 07:21:25 PM 40.7761 -78.8969 81° East 515 593 33,000  Level Cleveland Center
Fri 07:22:27 PM 40.8031 -78.6744 81° East 518 596 33,000  Level Cleveland Center
Fri 07:23:29 PM 40.8244 -78.4903 81° East 520 598 33,000  Level Cleveland Center
Fri 07:24:30 PM 40.8447 -78.3122 81° East 522 601 33,000  Level Cleveland Center
Fri 07:25:32 PM 40.8672 -78.1183 81° East 523 602 33,000  Level Cleveland Center
Fri 07:26:34 PM 40.8919 -77.8961 82° East 517 595 33,000  Level Cleveland Center
Fri 07:27:36 PM 40.9125 -77.7097 82° East 517 595 33,000  Level Cleveland Center
Fri 07:28:37 PM 40.9333 -77.5231 82° East 517 595 33,000  Level Cleveland Center
Fri 07:29:39 PM 40.9531 -77.3408 82° East 509 586 33,000 -484 Level Cleveland Center
Fri 07:30:41 PM 40.9728 -77.1533 82° East 514 592 32,000 -1,935 Descending Cleveland Center
Fri 07:31:43 PM 40.9917 -76.9611 83° East 523 602 29,000 -3,220 Descending Cleveland Center
Fri 07:32:44 PM 41.0150 -76.7383 82° East 517 595 25,400 -3,220 Descending Cleveland Center
Fri 07:33:46 PM 40.9967 -76.5581 98° East 513 590 22,400 -2,855 Descending Cleveland Center
Fri 07:34:48 PM 40.9544 -76.3869 108° East 496 571 19,500 -2,112 Descending Cleveland Center
Fri 07:35:51 PM 40.9114 -76.2078 108° East 467 537 18,000 -1,024 Descending New York Center
Fri 07:36:51 PM 40.8728 -76.0483 108° East 461 531 17,400 -1,550 Descending New York Center
Fri 07:37:51 PM 40.8339 -75.8917 108° East 455 524 14,900 -2,200 Descending New York Center
Fri 07:38:51 PM 40.7967 -75.7381 108° East 444 511 13,000 -950 Descending New York Center
Fri 07:39:51 PM 40.7647 -75.6069 108° East 425 489 13,000  Level New York Center
Fri 07:40:51 PM 40.7286 -75.4647 108° East 420 483 13,000 -50 Level New York Center
Fri 07:41:51 PM 40.6839 -75.3303 114° Southeast 408 470 12,900 -800 Descending New York Center
Fri 07:42:51 PM 40.6350 -75.1931 115° Southeast 408 470 11,400 -1,450 Descending New York Center
Fri 07:43:51 PM 40.5858 -75.0586 116° Southeast 408 470 10,000 -750 Descending New York Center
Fri 07:44:51 PM 40.5389 -74.9111 113° Southeast 408 470 9,900  Descending New York Center
Fri 07:45:52 PM 40.4997 -74.7775 111° Southeast 402 463 10,000  Climbing New York Center
Fri 07:46:51 PM 40.4622 -74.6581 112° Southeast 373 429 9,900 -50 Descending New York Center
Fri 07:47:51 PM 40.4325 -74.5475 109° East 336 387 9,900 -700 Level New York Center
Fri 07:48:51 PM 40.4567 -74.4422 73° East 289 333 8,500 -942 Descending New York Center
Fri 07:49:52 PM 40.4828 -74.3400 71° East 289 333 8,000 -250 Descending New York Center
Fri 07:50:51 PM 40.5108 -74.2378 70° East 289 333 8,000 -605 Level New York Center
Fri 07:51:51 PM 40.5367 -74.1381 71° East 289 333 6,800 -1,350 Descending New York Center
Fri 07:52:51 PM 40.5822 -74.0719 48° Northeast 267 307 5,300 -1,400 Descending New York Center
Fri 07:53:51 PM 40.6578 -74.0456 15° North 248 285 4,000 -700 Descending New York Center
Fri 07:54:51 PM 40.6886 -73.9950 51° Northeast 184 212 3,900 -198 Descending New York Center
Fri 07:55:52 PM 40.7406 -73.9947 360° North 153 176 3,600 -450 Descending New York Center
Fri 07:56:51 PM 40.7803 -73.9939 North 153 176 3,000 -303 Descending New York Center
Fri 07:57:51 PM 40.8247 -73.9631 28° Northeast 164 189 3,000 -163 Level New York Center
Fri 07:59:18 PM 40.8833 -73.9000 39° Northeast 181 208 2,600 -449 Descending New York TRACON
Fri 08:00:18 PM 40.8833 -73.8333 90° East 176 203 1,900 -496 Descending New York TRACON
Fri 08:01:19 PM 40.8500 -73.8167 159° South 147 169 1,600 -496 Descending New York TRACON
Fri 08:02:19 PM 40.8167 -73.8500 217° Southwest 133 153 900 -700 Descending New York TRACON
Fri 08:04:00 PM 40.7772 -73.8726 90° East  Level Estimated
Fri 08:11:00 PM 40.7772 -73.8726 90° East  Level Estimated

Login

Don't have an account? Register now (free) for customized features, flight alerts, and more!